sensor_id;sensor_type;location;lat;lon;timestamp;pressure;altitude;pressure_sealevel;temperature;humidity
9474;BME280;8865;47.636;7.692;2022-12-07T00:01:09;98356.31;;;5.20;100.00
9474;BME280;8865;47.636;7.692;2022-12-07T00:03:37;98347.81;;;5.18;100.00
9474;BME280;8865;47.636;7.692;2022-12-07T00:06:04;98358.09;;;5.19;100.00
9474;BME280;8865;47.636;7.692;2022-12-07T00:08:31;98348.72;;;5.17;100.00
9474;BME280;8865;47.636;7.692;2022-12-07T00:11:08;98353.00;;;5.18;100.00
9474;BME280;8865;47.636;7.692;2022-12-07T00:13:35;98356.41;;;5.18;100.00
9474;BME280;8865;47.636;7.692;2022-12-07T00:16:03;98352.44;;;5.13;100.00
9474;BME280;8865;47.636;7.692;2022-12-07T00:18:29;98347.44;;;5.10;100.00
9474;BME280;8865;47.636;7.692;2022-12-07T00:21:16;98357.00;;;5.09;100.00
9474;BME280;8865;47.636;7.692;2022-12-07T00:23:44;98345.97;;;5.06;100.00
9474;BME280;8865;47.636;7.692;2022-12-07T00:26:13;98344.19;;;5.06;100.00
9474;BME280;8865;47.636;7.692;2022-12-07T00:28:40;98335.78;;;5.03;100.00
9474;BME280;8865;47.636;7.692;2022-12-07T00:31:11;98342.44;;;5.07;100.00
9474;BME280;8865;47.636;7.692;2022-12-07T00:33:38;98344.38;;;5.03;100.00
9474;BME280;8865;47.636;7.692;2022-12-07T00:36:07;98342.63;;;5.04;100.00
9474;BME280;8865;47.636;7.692;2022-12-07T00:38:35;98340.31;;;4.99;100.00
9474;BME280;8865;47.636;7.692;2022-12-07T00:41:04;98345.78;;;4.94;100.00
9474;BME280;8865;47.636;7.692;2022-12-07T00:43:31;98339.13;;;4.90;100.00
9474;BME280;8865;47.636;7.692;2022-12-07T00:45:57;98342.41;;;4.79;100.00
9474;BME280;8865;47.636;7.692;2022-12-07T00:48:23;98345.19;;;4.76;100.00
9474;BME280;8865;47.636;7.692;2022-12-07T00:50:50;98345.09;;;4.78;100.00
9474;BME280;8865;47.636;7.692;2022-12-07T00:53:16;98344.03;;;4.80;100.00
9474;BME280;8865;47.636;7.692;2022-12-07T00:55:43;98348.41;;;4.80;100.00
9474;BME280;8865;47.636;7.692;2022-12-07T00:58:09;98334.88;;;4.75;100.00
9474;BME280;8865;47.636;7.692;2022-12-07T01:00:37;98341.63;;;4.77;100.00
9474;BME280;8865;47.636;7.692;2022-12-07T01:03:04;98344.97;;;4.79;100.00
9474;BME280;8865;47.636;7.692;2022-12-07T01:05:30;98343.22;;;4.80;100.00
9474;BME280;8865;47.636;7.692;2022-12-07T01:07:56;98346.19;;;4.74;100.00
9474;BME280;8865;47.636;7.692;2022-12-07T01:10:22;98345.44;;;4.72;100.00
9474;BME280;8865;47.636;7.692;2022-12-07T01:12:48;98337.75;;;4.70;100.00
9474;BME280;8865;47.636;7.692;2022-12-07T01:15:15;98339.88;;;4.63;100.00
9474;BME280;8865;47.636;7.692;2022-12-07T01:17:40;98344.34;;;4.61;100.00
9474;BME280;8865;47.636;7.692;2022-12-07T01:20:07;98334.88;;;4.60;100.00
9474;BME280;8865;47.636;7.692;2022-12-07T01:22:38;98336.00;;;4.56;100.00
9474;BME280;8865;47.636;7.692;2022-12-07T01:25:05;98338.22;;;4.48;100.00
9474;BME280;8865;47.636;7.692;2022-12-07T01:27:32;98340.72;;;4.50;100.00
9474;BME280;8865;47.636;7.692;2022-12-07T01:29:59;98345.06;;;4.49;100.00
9474;BME280;8865;47.636;7.692;2022-12-07T01:32:26;98344.88;;;4.52;100.00
9474;BME280;8865;47.636;7.692;2022-12-07T01:34:52;98346.47;;;4.55;100.00
9474;BME280;8865;47.636;7.692;2022-12-07T01:37:18;98347.38;;;4.54;100.00
9474;BME280;8865;47.636;7.692;2022-12-07T01:39:44;98351.75;;;4.53;100.00
9474;BME280;8865;47.636;7.692;2022-12-07T01:42:11;98348.22;;;4.54;100.00
9474;BME280;8865;47.636;7.692;2022-12-07T01:45:20;98348.97;;;4.56;100.00
9474;BME280;8865;47.636;7.692;2022-12-07T01:47:57;98352.47;;;4.55;100.00
9474;BME280;8865;47.636;7.692;2022-12-07T01:50:26;98352.47;;;4.55;100.00
9474;BME280;8865;47.636;7.692;2022-12-07T01:52:55;98349.06;;;4.55;100.00
9474;BME280;8865;47.636;7.692;2022-12-07T01:55:22;98353.13;;;4.59;100.00
9474;BME280;8865;47.636;7.692;2022-12-07T01:57:50;98364.63;;;4.55;100.00
9474;BME280;8865;47.636;7.692;2022-12-07T02:00:18;98358.50;;;4.56;100.00
9474;BME280;8865;47.636;7.692;2022-12-07T02:05:23;98358.78;;;4.51;100.00
9474;BME280;8865;47.636;7.692;2022-12-07T02:07:51;98356.00;;;4.54;100.00
9474;BME280;8865;47.636;7.692;2022-12-07T02:10:24;98357.75;;;4.54;100.00
9474;BME280;8865;47.636;7.692;2022-12-07T02:12:57;98349.16;;;4.53;100.00
9474;BME280;8865;47.636;7.692;2022-12-07T02:15:28;98348.41;;;4.51;100.00
9474;BME280;8865;47.636;7.692;2022-12-07T02:20:54;98339.88;;;4.49;100.00
9474;BME280;8865;47.636;7.692;2022-12-07T02:23:53;98346.66;;;4.52;100.00
9474;BME280;8865;47.636;7.692;2022-12-07T02:29:20;98343.22;;;4.51;100.00
9474;BME280;8865;47.636;7.692;2022-12-07T02:34:32;98331.91;;;4.52;100.00
9474;BME280;8865;47.636;7.692;2022-12-07T02:37:03;98341.94;;;4.58;100.00
9474;BME280;8865;47.636;7.692;2022-12-07T02:39:44;98339.16;;;4.61;100.00
9474;BME280;8865;47.636;7.692;2022-12-07T02:42:18;98341.19;;;4.56;100.00
9474;BME280;8865;47.636;7.692;2022-12-07T02:44:47;98336.00;;;4.56;100.00
9474;BME280;8865;47.636;7.692;2022-12-07T02:47:16;98340.16;;;4.59;100.00
9474;BME280;8865;47.636;7.692;2022-12-07T02:49:43;98328.97;;;4.58;100.00
9474;BME280;8865;47.636;7.692;2022-12-07T02:52:09;98331.63;;;4.57;100.00
9474;BME280;8865;47.636;7.692;2022-12-07T02:54:35;98340.34;;;4.56;100.00
9474;BME280;8865;47.636;7.692;2022-12-07T03:00:11;98346.28;;;4.58;100.00
9474;BME280;8865;47.636;7.692;2022-12-07T03:02:58;98345.34;;;4.59;100.00
9474;BME280;8865;47.636;7.692;2022-12-07T03:11:03;98338.31;;;4.61;100.00
9474;BME280;8865;47.636;7.692;2022-12-07T03:14:02;98333.41;;;4.56;100.00
9474;BME280;8865;47.636;7.692;2022-12-07T03:16:41;98338.59;;;4.56;100.00
9474;BME280;8865;47.636;7.692;2022-12-07T03:19:18;98337.66;;;4.57;100.00
9474;BME280;8865;47.636;7.692;2022-12-07T03:21:49;98339.34;;;4.58;100.00
9474;BME280;8865;47.636;7.692;2022-12-07T03:24:23;98339.16;;;4.61;100.00
9474;BME280;8865;47.636;7.692;2022-12-07T03:26:59;98331.38;;;4.61;100.00
9474;BME280;8865;47.636;7.692;2022-12-07T03:29:32;98329.78;;;4.59;100.00
9474;BME280;8865;47.636;7.692;2022-12-07T03:32:07;98331.47;;;4.60;100.00
9474;BME280;8865;47.636;7.692;2022-12-07T03:34:38;98336.56;;;4.61;100.00
9474;BME280;8865;47.636;7.692;2022-12-07T03:37:18;98332.28;;;4.60;100.00
9474;BME280;8865;47.636;7.692;2022-12-07T03:42:31;98339.34;;;4.58;100.00
9474;BME280;8865;47.636;7.692;2022-12-07T03:45:00;98333.31;;;4.58;100.00
9474;BME280;8865;47.636;7.692;2022-12-07T03:48:20;98337.66;;;4.57;100.00
9474;BME280;8865;47.636;7.692;2022-12-07T03:53:24;98337.84;;;4.54;100.00
9474;BME280;8865;47.636;7.692;2022-12-07T03:55:56;98331.72;;;4.55;100.00
9474;BME280;8865;47.636;7.692;2022-12-07T03:58:24;98332.66;;;4.54;100.00
9474;BME280;8865;47.636;7.692;2022-12-07T04:00:51;98331.00;;;4.53;100.00
9474;BME280;8865;47.636;7.692;2022-12-07T04:03:17;98326.63;;;4.54;100.00
9474;BME280;8865;47.636;7.692;2022-12-07T04:05:44;98336.91;;;4.55;100.00
9474;BME280;8865;47.636;7.692;2022-12-07T04:08:10;98333.50;;;4.55;100.00
9474;BME280;8865;47.636;7.692;2022-12-07T04:10:36;98326.34;;;4.58;100.00
9474;BME280;8865;47.636;7.692;2022-12-07T04:13:02;98332.38;;;4.59;100.00
9474;BME280;8865;47.636;7.692;2022-12-07T04:15:28;98329.59;;;4.62;100.00
9474;BME280;8865;47.636;7.692;2022-12-07T04:17:54;98320.06;;;4.62;100.00
9474;BME280;8865;47.636;7.692;2022-12-07T04:20:20;98313.03;;;4.64;100.00
9474;BME280;8865;47.636;7.692;2022-12-07T04:22:46;98319.03;;;4.65;100.00
9474;BME280;8865;47.636;7.692;2022-12-07T04:25:12;98313.84;;;4.65;100.00
9474;BME280;8865;47.636;7.692;2022-12-07T04:27:38;98314.69;;;4.65;100.00
9474;BME280;8865;47.636;7.692;2022-12-07T04:30:05;98310.34;;;4.66;100.00
9474;BME280;8865;47.636;7.692;2022-12-07T04:32:31;98314.78;;;4.64;100.00
9474;BME280;8865;47.636;7.692;2022-12-07T04:34:57;98307.53;;;4.69;100.00
9474;BME280;8865;47.636;7.692;2022-12-07T04:37:23;98304.13;;;4.69;100.00
9474;BME280;8865;47.636;7.692;2022-12-07T04:39:50;98303.28;;;4.68;100.00
9474;BME280;8865;47.636;7.692;2022-12-07T04:42:16;98290.41;;;4.67;100.00
9474;BME280;8865;47.636;7.692;2022-12-07T04:44:42;98300.78;;;4.67;100.00
9474;BME280;8865;47.636;7.692;2022-12-07T04:47:08;98304.94;;;4.69;100.00
9474;BME280;8865;47.636;7.692;2022-12-07T04:49:34;98300.78;;;4.67;100.00
9474;BME280;8865;47.636;7.692;2022-12-07T04:51:59;98304.41;;;4.64;100.00
9474;BME280;8865;47.636;7.692;2022-12-07T04:54:25;98308.66;;;4.65;100.00
9474;BME280;8865;47.636;7.692;2022-12-07T04:56:51;98308.66;;;4.65;100.00
9474;BME280;8865;47.636;7.692;2022-12-07T04:59:17;98302.56;;;4.66;100.00
9474;BME280;8865;47.636;7.692;2022-12-07T05:01:44;98308.66;;;4.65;100.00
9474;BME280;8865;47.636;7.692;2022-12-07T05:04:10;98314.03;;;4.62;100.00
9474;BME280;8865;47.636;7.692;2022-12-07T05:06:36;98310.06;;;4.56;100.00
9474;BME280;8865;47.636;7.692;2022-12-07T05:09:03;98312.66;;;4.56;100.00
9474;BME280;8865;47.636;7.692;2022-12-07T05:11:29;98316.00;;;4.58;100.00
9474;BME280;8865;47.636;7.692;2022-12-07T05:14:06;98314.31;;;4.57;100.00
9474;BME280;8865;47.636;7.692;2022-12-07T05:16:33;98322.00;;;4.59;100.00
9474;BME280;8865;47.636;7.692;2022-12-07T05:18:59;98324.50;;;4.60;100.00
9474;BME280;8865;47.636;7.692;2022-12-07T05:21:25;98322.84;;;4.59;100.00
9474;BME280;8865;47.636;7.692;2022-12-07T05:23:51;98322.94;;;4.58;100.00
9474;BME280;8865;47.636;7.692;2022-12-07T05:26:17;98325.53;;;4.58;100.00
9474;BME280;8865;47.636;7.692;2022-12-07T05:28:43;98323.75;;;4.58;100.00
9474;BME280;8865;47.636;7.692;2022-12-07T05:31:09;98327.28;;;4.57;100.00
9474;BME280;8865;47.636;7.692;2022-12-07T05:33:35;98323.84;;;4.57;100.00
9474;BME280;8865;47.636;7.692;2022-12-07T05:36:01;98327.28;;;4.57;100.00
9474;BME280;8865;47.636;7.692;2022-12-07T05:38:31;98322.94;;;4.58;100.00
9474;BME280;8865;47.636;7.692;2022-12-07T05:41:02;98322.09;;;4.57;100.00
9474;BME280;8865;47.636;7.692;2022-12-07T05:43:30;98317.75;;;4.58;100.00
9474;BME280;8865;47.636;7.692;2022-12-07T05:45:56;98324.69;;;4.57;100.00
9474;BME280;8865;47.636;7.692;2022-12-07T05:48:22;98319.50;;;4.57;100.00
9474;BME280;8865;47.636;7.692;2022-12-07T05:50:49;98317.84;;;4.56;100.00
9474;BME280;8865;47.636;7.692;2022-12-07T05:53:16;98328.97;;;4.58;100.00
9474;BME280;8865;47.636;7.692;2022-12-07T05:55:43;98326.44;;;4.57;100.00
9474;BME280;8865;47.636;7.692;2022-12-07T05:58:10;98334.31;;;4.55;100.00
9474;BME280;8865;47.636;7.692;2022-12-07T06:00:55;98334.50;;;4.52;100.00
9474;BME280;8865;47.636;7.692;2022-12-07T06:03:21;98328.69;;;4.49;100.00
9474;BME280;8865;47.636;7.692;2022-12-07T06:05:47;98325.44;;;4.45;100.00
9474;BME280;8865;47.636;7.692;2022-12-07T06:08:13;98332.56;;;4.41;100.00
9474;BME280;8865;47.636;7.692;2022-12-07T06:10:41;98328.47;;;4.37;100.00
9474;BME280;8865;47.636;7.692;2022-12-07T06:13:08;98332.09;;;4.35;100.00
9474;BME280;8865;47.636;7.692;2022-12-07T06:15:37;98333.84;;;4.34;100.00
9474;BME280;8865;47.636;7.692;2022-12-07T06:18:03;98330.53;;;4.32;100.00
9474;BME280;8865;47.636;7.692;2022-12-07T06:20:29;98329.78;;;4.30;100.00
9474;BME280;8865;47.636;7.692;2022-12-07T06:22:55;98335.25;;;4.25;100.00
9474;BME280;8865;47.636;7.692;2022-12-07T06:25:21;98336.69;;;4.15;100.00
9474;BME280;8865;47.636;7.692;2022-12-07T06:27:47;98337.16;;;4.07;100.00
9474;BME280;8865;47.636;7.692;2022-12-07T06:30:13;98334.56;;;4.07;100.00
9474;BME280;8865;47.636;7.692;2022-12-07T06:32:39;98343.16;;;4.08;100.00
9474;BME280;8865;47.636;7.692;2022-12-07T06:35:05;98341.56;;;4.05;100.00
9474;BME280;8865;47.636;7.692;2022-12-07T06:37:32;98341.00;;;4.00;100.00
9474;BME280;8865;47.636;7.692;2022-12-07T06:39:58;98341.38;;;3.94;100.00
9474;BME280;8865;47.636;7.692;2022-12-07T06:42:24;98343.22;;;3.92;100.00
9474;BME280;8865;47.636;7.692;2022-12-07T06:44:50;98340.53;;;3.93;100.00
9474;BME280;8865;47.636;7.692;2022-12-07T06:47:16;98346.56;;;3.94;100.00
9474;BME280;8865;47.636;7.692;2022-12-07T06:49:41;98336.19;;;3.94;100.00
9474;BME280;8865;47.636;7.692;2022-12-07T06:52:07;98336.09;;;3.96;100.00
9474;BME280;8865;47.636;7.692;2022-12-07T06:54:33;98337.78;;;3.97;100.00
9474;BME280;8865;47.636;7.692;2022-12-07T06:57:00;98338.69;;;3.96;100.00
9474;BME280;8865;47.636;7.692;2022-12-07T06:59:26;98337.78;;;3.97;100.00
9474;BME280;8865;47.636;7.692;2022-12-07T07:01:52;98339.59;;;3.94;100.00
9474;BME280;8865;47.636;7.692;2022-12-07T07:04:18;98336.81;;;3.98;100.00
9474;BME280;8865;47.636;7.692;2022-12-07T07:06:44;98338.50;;;3.99;100.00
9474;BME280;8865;47.636;7.692;2022-12-07T07:09:10;98341.19;;;3.97;100.00
9474;BME280;8865;47.636;7.692;2022-12-07T07:11:35;98347.38;;;3.94;100.00
9474;BME280;8865;47.636;7.692;2022-12-07T07:14:01;98350.72;;;3.97;100.00
9474;BME280;8865;47.636;7.692;2022-12-07T07:16:29;98354.97;;;3.98;100.00
9474;BME280;8865;47.636;7.692;2022-12-07T07:18:56;98353.31;;;3.97;100.00
9474;BME280;8865;47.636;7.692;2022-12-07T07:21:22;98356.91;;;3.94;100.00
9474;BME280;8865;47.636;7.692;2022-12-07T07:23:49;98353.31;;;3.97;100.00
9474;BME280;8865;47.636;7.692;2022-12-07T07:26:15;98348.69;;;4.02;100.00
9474;BME280;8865;47.636;7.692;2022-12-07T07:28:41;98352.03;;;4.04;100.00
9474;BME280;8865;47.636;7.692;2022-12-07T07:31:07;98351.47;;;3.99;100.00
9474;BME280;8865;47.636;7.692;2022-12-07T07:33:33;98348.78;;;4.00;100.00
9474;BME280;8865;47.636;7.692;2022-12-07T07:35:59;98352.03;;;4.04;100.00
9474;BME280;8865;47.636;7.692;2022-12-07T07:38:25;98355.38;;;4.06;100.00
9474;BME280;8865;47.636;7.692;2022-12-07T07:40:50;98365.47;;;4.10;100.00
9474;BME280;8865;47.636;7.692;2022-12-07T07:43:16;98363.53;;;4.14;100.00
9474;BME280;8865;47.636;7.692;2022-12-07T07:45:44;98359.25;;;4.13;100.00
9474;BME280;8865;47.636;7.692;2022-12-07T07:48:10;98358.25;;;4.16;100.00
9474;BME280;8865;47.636;7.692;2022-12-07T07:50:36;98361.50;;;4.19;100.00
9474;BME280;8865;47.636;7.692;2022-12-07T07:53:01;98365.03;;;4.18;100.00
9474;BME280;8865;47.636;7.692;2022-12-07T07:55:27;98364.84;;;4.21;100.00
9474;BME280;8865;47.636;7.692;2022-12-07T07:57:54;98364.50;;;4.27;100.00
9474;BME280;8865;47.636;7.692;2022-12-07T08:00:20;98364.69;;;4.39;100.00
9474;BME280;8865;47.636;7.692;2022-12-07T08:02:46;98358.59;;;4.40;100.00
9474;BME280;8865;47.636;7.692;2022-12-07T08:05:13;98362.50;;;4.47;100.00
9474;BME280;8865;47.636;7.692;2022-12-07T08:07:39;98365.00;;;4.49;100.00
9474;BME280;8865;47.636;7.692;2022-12-07T08:10:06;98369.81;;;4.55;100.00
9474;BME280;8865;47.636;7.692;2022-12-07T08:12:36;98375.56;;;4.60;100.00
9474;BME280;8865;47.636;7.692;2022-12-07T08:15:03;98377.13;;;4.62;100.00
9474;BME280;8865;47.636;7.692;2022-12-07T08:17:29;98381.00;;;4.70;100.00
9474;BME280;8865;47.636;7.692;2022-12-07T08:19:55;98383.44;;;4.73;100.00
9474;BME280;8865;47.636;7.692;2022-12-07T08:22:22;98381.50;;;4.76;100.00
9474;BME280;8865;47.636;7.692;2022-12-07T08:24:48;98391.69;;;4.79;100.00
9474;BME280;8865;47.636;7.692;2022-12-07T08:27:14;98383.91;;;4.79;100.00
9474;BME280;8865;47.636;7.692;2022-12-07T08:29:40;98388.91;;;4.82;100.00
9474;BME280;8865;47.636;7.692;2022-12-07T08:32:06;98386.03;;;4.87;100.00
9474;BME280;8865;47.636;7.692;2022-12-07T08:34:32;98389.19;;;4.92;100.00
9474;BME280;8865;47.636;7.692;2022-12-07T08:36:57;98381.50;;;4.91;100.00
9474;BME280;8865;47.636;7.692;2022-12-07T08:39:23;98389.19;;;4.92;100.00
9474;BME280;8865;47.636;7.692;2022-12-07T08:41:49;98386.78;;;4.89;100.00
9474;BME280;8865;47.636;7.692;2022-12-07T08:44:15;98385.94;;;4.89;100.00
9474;BME280;8865;47.636;7.692;2022-12-07T08:46:46;98395.28;;;4.91;100.00
9474;BME280;8865;47.636;7.692;2022-12-07T08:49:27;98392.50;;;4.94;100.00
9474;BME280;8865;47.636;7.692;2022-12-07T08:51:56;98390.38;;;4.87;100.00
9474;BME280;8865;47.636;7.692;2022-12-07T08:54:22;98388.63;;;4.87;100.00
9474;BME280;8865;47.636;7.692;2022-12-07T08:56:49;98392.78;;;4.90;100.00
9474;BME280;8865;47.636;7.692;2022-12-07T08:59:18;98384.91;;;4.91;100.00
9474;BME280;8865;47.636;7.692;2022-12-07T09:01:44;98391.31;;;5.00;100.00
9474;BME280;8865;47.636;7.692;2022-12-07T09:04:10;98389.91;;;5.09;100.00
9474;BME280;8865;47.636;7.692;2022-12-07T09:06:37;98395.47;;;5.17;100.00
9474;BME280;8865;47.636;7.692;2022-12-07T09:09:03;98387.84;;;5.28;100.00
9474;BME280;8865;47.636;7.692;2022-12-07T09:11:29;98382.00;;;5.39;100.00
9474;BME280;8865;47.636;7.692;2022-12-07T09:13:56;98387.22;;;5.52;100.00
9474;BME280;8865;47.636;7.692;2022-12-07T09:16:22;98381.66;;;5.58;100.00
9474;BME280;8865;47.636;7.692;2022-12-07T09:18:48;98381.78;;;5.69;100.00
9474;BME280;8865;47.636;7.692;2022-12-07T09:21:13;98384.66;;;5.92;100.00
9474;BME280;8865;47.636;7.692;2022-12-07T09:23:41;98378.97;;;6.27;100.00
9474;BME280;8865;47.636;7.692;2022-12-07T09:26:07;98370.06;;;7.20;100.00
9474;BME280;8865;47.636;7.692;2022-12-07T09:28:33;98371.31;;;7.75;100.00
9474;BME280;8865;47.636;7.692;2022-12-07T09:30:59;98374.94;;;7.97;100.00
9474;BME280;8865;47.636;7.692;2022-12-07T09:33:25;98379.81;;;8.01;100.00
9474;BME280;8865;47.636;7.692;2022-12-07T09:35:51;98381.03;;;7.73;100.00
9474;BME280;8865;47.636;7.692;2022-12-07T09:38:18;98379.63;;;7.56;100.00
9474;BME280;8865;47.636;7.692;2022-12-07T09:40:46;98382.19;;;7.45;100.00
9474;BME280;8865;47.636;7.692;2022-12-07T09:43:14;98378.94;;;7.41;100.00
9474;BME280;8865;47.636;7.692;2022-12-07T09:45:41;98376.00;;;7.46;100.00
9474;BME280;8865;47.636;7.692;2022-12-07T09:48:34;98367.66;;;8.49;100.00
9474;BME280;8865;47.636;7.692;2022-12-07T09:51:03;98367.75;;;9.38;100.00
9474;BME280;8865;47.636;7.692;2022-12-07T09:53:39;98364.66;;;9.88;100.00
9474;BME280;8865;47.636;7.692;2022-12-07T09:56:06;98368.53;;;9.61;100.00
9474;BME280;8865;47.636;7.692;2022-12-07T09:58:33;98367.81;;;9.04;100.00
9474;BME280;8865;47.636;7.692;2022-12-07T10:03:39;98362.88;;;7.72;100.00
9474;BME280;8865;47.636;7.692;2022-12-07T10:06:06;98366.56;;;7.32;100.00
9474;BME280;8865;47.636;7.692;2022-12-07T10:08:33;98368.09;;;7.10;100.00
9474;BME280;8865;47.636;7.692;2022-12-07T10:11:01;98356.28;;;8.14;100.00
9474;BME280;8865;47.636;7.692;2022-12-07T10:13:42;98349.88;;;8.88;100.00
9474;BME280;8865;47.636;7.692;2022-12-07T10:16:39;98346.19;;;8.79;100.00
9474;BME280;8865;47.636;7.692;2022-12-07T10:22:01;98333.50;;;11.79;92.76
9474;BME280;8865;47.636;7.692;2022-12-07T10:24:27;98330.66;;;12.87;75.60
9474;BME280;8865;47.636;7.692;2022-12-07T10:26:53;98322.97;;;12.19;76.70
9474;BME280;8865;47.636;7.692;2022-12-07T10:29:31;98312.41;;;16.25;60.33
9474;BME280;8865;47.636;7.692;2022-12-07T10:34:33;98314.03;;;18.61;43.16
9474;BME280;8865;47.636;7.692;2022-12-07T10:42:16;98318.47;;;12.58;60.25
9474;BME280;8865;47.636;7.692;2022-12-07T10:44:43;98320.91;;;11.83;69.50
9474;BME280;8865;47.636;7.692;2022-12-07T10:53:26;98309.25;;;9.61;94.80
9474;BME280;8865;47.636;7.692;2022-12-07T11:06:39;98287.25;;;19.00;46.62
9474;BME280;8865;47.636;7.692;2022-12-07T11:12:20;98276.31;;;15.17;49.48
9474;BME280;8865;47.636;7.692;2022-12-07T11:15:04;98283.84;;;13.46;54.77
9474;BME280;8865;47.636;7.692;2022-12-07T11:20:32;98281.00;;;11.89;66.59
9474;BME280;8865;47.636;7.692;2022-12-07T11:33:29;98247.19;;;20.31;41.36
9474;BME280;8865;47.636;7.692;2022-12-07T11:38:47;98238.69;;;24.93;29.27
9474;BME280;8865;47.636;7.692;2022-12-07T11:41:22;98229.81;;;26.08;26.66
9474;BME280;8865;47.636;7.692;2022-12-07T11:44:04;98228.31;;;24.67;27.02
9474;BME280;8865;47.636;7.692;2022-12-07T11:51:54;98231.19;;;15.36;42.34
9474;BME280;8865;47.636;7.692;2022-12-07T11:54:43;98225.06;;;15.69;44.10
9474;BME280;8865;47.636;7.692;2022-12-07T11:57:22;98211.19;;;18.78;38.82
9474;BME280;8865;47.636;7.692;2022-12-07T11:59:57;98212.84;;;22.14;33.50
9474;BME280;8865;47.636;7.692;2022-12-07T12:02:34;98212.75;;;24.75;28.70
9474;BME280;8865;47.636;7.692;2022-12-07T12:05:17;98202.88;;;23.06;29.27
9474;BME280;8865;47.636;7.692;2022-12-07T12:07:46;98206.22;;;23.91;28.47
9474;BME280;8865;47.636;7.692;2022-12-07T12:10:19;98201.38;;;21.66;30.48
9474;BME280;8865;47.636;7.692;2022-12-07T12:20:52;98201.91;;;14.46;43.34
9474;BME280;8865;47.636;7.692;2022-12-07T12:26:04;98196.84;;;12.01;51.78
9474;BME280;8865;47.636;7.692;2022-12-07T12:33:52;98195.31;;;10.21;72.66
9474;BME280;8865;47.636;7.692;2022-12-07T12:54:58;98170.41;;;18.79;39.56
9474;BME280;8865;47.636;7.692;2022-12-07T12:57:28;98166.56;;;20.31;35.94
9474;BME280;8865;47.636;7.692;2022-12-07T13:02:30;98159.28;;;19.05;36.79
9474;BME280;8865;47.636;7.692;2022-12-07T13:15:44;98151.59;;;11.79;55.32
9474;BME280;8865;47.636;7.692;2022-12-07T13:34:32;98137.47;;;11.23;69.29
9474;BME280;8865;47.636;7.692;2022-12-07T13:37:01;98143.25;;;13.31;58.22
9474;BME280;8865;47.636;7.692;2022-12-07T13:39:28;98134.19;;;15.39;49.87
9474;BME280;8865;47.636;7.692;2022-12-07T13:41:58;98126.06;;;16.29;45.96
9474;BME280;8865;47.636;7.692;2022-12-07T13:44:27;98123.59;;;16.28;44.37
9474;BME280;8865;47.636;7.692;2022-12-07T13:47:17;98117.38;;;16.12;45.15
9474;BME280;8865;47.636;7.692;2022-12-07T13:49:50;98120.84;;;15.32;46.28
9474;BME280;8865;47.636;7.692;2022-12-07T13:54:55;98128.88;;;13.35;51.32
9474;BME280;8865;47.636;7.692;2022-12-07T13:57:22;98121.75;;;12.18;54.36
9474;BME280;8865;47.636;7.692;2022-12-07T13:59:50;98126.75;;;11.73;56.98
9474;BME280;8865;47.636;7.692;2022-12-07T14:02:28;98119.25;;;11.12;61.01
9474;BME280;8865;47.636;7.692;2022-12-07T14:05:14;98119.22;;;10.53;65.10
9474;BME280;8865;47.636;7.692;2022-12-07T14:10:36;98107.88;;;9.61;72.96
9474;BME280;8865;47.636;7.692;2022-12-07T14:13:38;98115.47;;;9.22;77.11
9474;BME280;8865;47.636;7.692;2022-12-07T14:16:30;98119.81;;;8.80;84.86
9474;BME280;8865;47.636;7.692;2022-12-07T14:18:58;98115.72;;;8.66;94.31
9474;BME280;8865;47.636;7.692;2022-12-07T14:21:27;98113.41;;;8.51;89.35
9474;BME280;8865;47.636;7.692;2022-12-07T14:24:18;98113.53;;;8.50;91.62
9474;BME280;8865;47.636;7.692;2022-12-07T14:26:49;98116.13;;;8.50;90.26
9474;BME280;8865;47.636;7.692;2022-12-07T14:29:33;98121.59;;;8.47;93.63
9474;BME280;8865;47.636;7.692;2022-12-07T14:34:59;98115.97;;;8.40;95.52
9474;BME280;8865;47.636;7.692;2022-12-07T14:37:26;98107.59;;;8.36;94.82
9474;BME280;8865;47.636;7.692;2022-12-07T14:39:52;98109.84;;;8.30;92.20
9474;BME280;8865;47.636;7.692;2022-12-07T14:42:18;98116.75;;;8.19;94.15
9474;BME280;8865;47.636;7.692;2022-12-07T14:44:45;98109.41;;;8.13;100.00
9474;BME280;8865;47.636;7.692;2022-12-07T14:47:12;98109.19;;;8.05;96.97
9474;BME280;8865;47.636;7.692;2022-12-07T14:49:38;98102.31;;;7.93;97.12
9474;BME280;8865;47.636;7.692;2022-12-07T14:52:05;98107.28;;;7.84;100.00
9474;BME280;8865;47.636;7.692;2022-12-07T14:54:34;98105.50;;;7.74;95.25
9474;BME280;8865;47.636;7.692;2022-12-07T14:57:00;98094.03;;;7.65;99.61
9474;BME280;8865;47.636;7.692;2022-12-07T14:59:26;98108.22;;;7.49;98.67
9474;BME280;8865;47.636;7.692;2022-12-07T15:01:52;98108.34;;;7.48;100.00
9474;BME280;8865;47.636;7.692;2022-12-07T15:04:18;98113.91;;;7.43;100.00
9474;BME280;8865;47.636;7.692;2022-12-07T15:06:56;98105.81;;;7.35;99.68
9474;BME280;8865;47.636;7.692;2022-12-07T15:09:22;98105.69;;;7.25;100.00
9474;BME280;8865;47.636;7.692;2022-12-07T15:11:48;98108.63;;;7.21;100.00
9474;BME280;8865;47.636;7.692;2022-12-07T15:14:14;98109.78;;;7.17;100.00
9474;BME280;8865;47.636;7.692;2022-12-07T15:16:41;98107.16;;;7.05;100.00
9474;BME280;8865;47.636;7.692;2022-12-07T15:19:21;98106.66;;;7.00;100.00
9474;BME280;8865;47.636;7.692;2022-12-07T15:21:52;98104.41;;;6.95;100.00
9474;BME280;8865;47.636;7.692;2022-12-07T15:24:19;98105.69;;;6.90;100.00
9474;BME280;8865;47.636;7.692;2022-12-07T15:26:45;98107.09;;;6.83;100.00
9474;BME280;8865;47.636;7.692;2022-12-07T15:29:11;98109.78;;;6.81;100.00
9474;BME280;8865;47.636;7.692;2022-12-07T15:31:37;98108.25;;;6.78;100.00
9474;BME280;8865;47.636;7.692;2022-12-07T15:34:04;98111.91;;;6.76;100.00
9474;BME280;8865;47.636;7.692;2022-12-07T15:36:31;98108.69;;;6.72;100.00
9474;BME280;8865;47.636;7.692;2022-12-07T15:38:57;98100.16;;;6.70;100.00
9474;BME280;8865;47.636;7.692;2022-12-07T15:41:24;98104.88;;;6.65;100.00
9474;BME280;8865;47.636;7.692;2022-12-07T15:43:50;98102.63;;;6.60;100.00
9474;BME280;8865;47.636;7.692;2022-12-07T15:46:37;98103.19;;;6.53;100.00
9474;BME280;8865;47.636;7.692;2022-12-07T15:49:04;98107.84;;;6.48;100.00
9474;BME280;8865;47.636;7.692;2022-12-07T15:51:32;98096.25;;;6.40;100.00
9474;BME280;8865;47.636;7.692;2022-12-07T15:54:00;98094.09;;;6.34;100.00
9474;BME280;8865;47.636;7.692;2022-12-07T15:56:26;98097.84;;;6.30;100.00
9474;BME280;8865;47.636;7.692;2022-12-07T15:58:52;98090.38;;;6.25;100.00
9474;BME280;8865;47.636;7.692;2022-12-07T16:01:19;98089.13;;;6.18;100.00
9474;BME280;8865;47.636;7.692;2022-12-07T16:03:46;98098.94;;;6.15;100.00
9474;BME280;8865;47.636;7.692;2022-12-07T16:06:12;98088.22;;;6.06;100.00